Time;durP1;ratioP1;P1;durP2;ratioP2;P2;SDS_P1;SDS_P2;PMS_P1;PMS_P2;Temp;Humidity;BMP_temperature;BMP_pressure;BME280_temperature;BME280_humidity;BME280_pressure;Samples;Min_cycle;Max_cycle;Signal;HPM_P1;HPM_P2
2022/04/12 00:00:36;;;;;;;5.68;2.38;;;9.10;97.30;;;;;;5054134;28;20033;-75
2022/04/12 00:03:02;;;;;;;5.65;2.35;;;9.10;97.10;;;;;;5054596;28;20469;-75
2022/04/12 00:05:28;;;;;;;5.97;3.05;;;9.10;98.20;;;;;;5036720;28;20096;-75
2022/04/12 00:07:54;;;;;;;9.80;2.85;;;9.10;98.30;;;;;;5054998;28;20033;-75
2022/04/12 00:10:19;;;;;;;9.60;3.22;;;9.10;97.90;;;;;;5036163;28;20025;-76
2022/04/12 00:12:46;;;;;;;5.95;2.42;;;9.10;97.20;;;;;;5036984;28;20078;-76
2022/04/12 00:15:12;;;;;;;6.43;2.90;;;9.10;97.90;;;;;;5054364;28;20532;-76
2022/04/12 00:20:26;;;;;;;4.38;2.00;;;9.20;96.70;;;;;;5054697;28;20079;-76
2022/04/12 00:22:52;;;;;;;5.63;2.35;;;9.20;97.30;;;;;;5054081;28;20524;-75
2022/04/12 00:25:19;;;;;;;7.75;2.25;;;9.20;97.50;;;;;;5036317;28;20052;-76
2022/04/12 00:27:44;;;;;;;6.78;1.95;;;9.20;96.40;;;;;;5054196;28;20029;-76
2022/04/12 00:30:13;;;;;;;6.47;2.13;;;9.30;95.60;;;;;;5054177;28;20363;-76
2022/04/12 00:32:39;;;;;;;;;;;9.30;96.00;;;;;;5054240;28;20454;-75
2022/04/12 00:35:05;;;;;;;4.65;2.45;;;9.30;97.60;;;;;;5035789;28;19952;-75
2022/04/12 00:37:31;;;;;;;6.38;2.67;;;9.30;97.30;;;;;;5053804;28;20055;-75
2022/04/12 00:39:56;;;;;;;5.45;2.22;;;9.30;97.20;;;;;;5053870;28;20017;-75
2022/04/12 00:42:22;;;;;;;6.28;2.45;;;9.40;96.80;;;;;;5035734;28;20125;-75
2022/04/12 00:44:48;;;;;;;5.28;2.78;;;9.40;96.40;;;;;;5053500;28;20032;-75
2022/04/12 00:47:14;;;;;;;6.75;2.38;;;9.40;96.70;;;;;;5053650;28;20466;-75
2022/04/12 00:49:40;;;;;;;9.52;3.00;;;9.40;97.10;;;;;;5053495;28;20025;-75
2022/04/12 00:52:10;;;;;;;8.43;2.88;;;9.40;96.40;;;;;;5035506;28;20032;-75
2022/04/12 00:54:37;;;;;;;4.30;1.90;;;9.40;96.50;;;;;;5053867;28;20120;-75
2022/04/12 00:57:04;;;;;;;4.38;2.17;;;9.40;96.70;;;;;;5053452;28;20036;-75
2022/04/12 00:59:34;;;;;;;4.82;1.55;;;9.40;97.00;;;;;;5053309;28;20477;-75
2022/04/12 01:02:03;;;;;;;6.50;2.00;;;9.30;97.50;;;;;;5035154;28;20025;-75
2022/04/12 01:04:29;;;;;;;6.28;1.90;;;9.30;97.70;;;;;;5036255;28;20020;-75
2022/04/12 01:06:54;;;;;;;7.35;2.30;;;9.30;97.40;;;;;;5053270;28;20037;-75
2022/04/12 01:09:21;;;;;;;4.75;1.63;;;9.30;97.90;;;;;;5053309;28;20021;-75
2022/04/12 01:11:48;;;;;;;6.28;2.20;;;9.40;97.30;;;;;;5035132;28;20198;-75
2022/04/12 01:14:15;;;;;;;4.53;1.83;;;9.20;97.30;;;;;;5053239;28;20021;-75
2022/04/12 01:16:41;;;;;;;3.90;1.98;;;9.20;97.60;;;;;;5035260;28;20029;-75
2022/04/12 01:19:06;;;;;;;4.25;2.25;;;9.10;97.90;;;;;;5035412;28;20017;-75
2022/04/12 01:21:49;;;;;;;5.80;1.80;;;9.10;98.60;;;;;;5052647;28;20064;-75
2022/04/12 01:24:14;;;;;;;3.33;1.77;;;9.10;98.80;;;;;;5053580;28;20381;-75
2022/04/12 01:26:41;;;;;;;8.57;2.45;;;9.00;99.20;;;;;;5053204;28;20025;-75
2022/04/12 01:29:06;;;;;;;3.20;1.60;;;9.00;98.70;;;;;;5053212;28;20112;-75
2022/04/12 01:31:32;;;;;;;2.83;1.27;;;9.00;99.00;;;;;;5053025;28;20061;-74
2022/04/12 01:33:58;;;;;;;3.67;1.50;;;9.00;99.40;;;;;;5035358;28;20031;-74
2022/04/12 01:36:23;;;;;;;6.30;2.00;;;9.00;98.70;;;;;;5035445;28;20048;-75
2022/04/12 01:38:49;;;;;;;4.82;1.98;;;8.90;99.40;;;;;;5053177;28;20021;-74
2022/04/12 01:41:15;;;;;;;4.18;1.85;;;8.90;99.60;;;;;;5036506;28;20044;-74
2022/04/12 01:43:41;;;;;;;6.30;1.73;;;8.90;99.70;;;;;;5054740;28;20385;-74
2022/04/12 01:46:07;;;;;;;3.75;1.85;;;8.80;99.70;;;;;;5053271;28;20019;-74
2022/04/12 01:48:32;;;;;;;7.72;1.65;;;8.80;99.90;;;;;;5053419;28;20024;-74
2022/04/12 01:50:58;;;;;;;4.40;1.70;;;8.70;99.90;;;;;;5056810;28;20021;-74
2022/04/12 01:53:24;;;;;;;5.18;1.88;;;8.70;99.90;;;;;;5056875;28;20033;-74
2022/04/12 01:55:49;;;;;;;4.57;1.73;;;8.70;99.90;;;;;;5056986;28;20493;-74
2022/04/12 01:58:15;;;;;;;6.78;1.90;;;8.60;99.90;;;;;;5057165;28;20155;-74
2022/04/12 02:00:42;;;;;;;11.05;3.00;;;8.60;99.90;;;;;;5057215;28;20020;-74
2022/04/12 02:03:09;;;;;;;5.18;1.88;;;8.60;99.90;;;;;;5057244;28;20071;-73
2022/04/12 02:05:35;;;;;;;4.70;1.58;;;8.50;99.90;;;;;;5057179;28;20044;-73
2022/04/12 02:08:03;;;;;;;3.70;1.63;;;8.50;99.90;;;;;;5056632;28;20478;-74
2022/04/12 02:10:29;;;;;;;5.18;1.65;;;8.50;99.90;;;;;;5056985;28;20033;-73
2022/04/12 02:12:54;;;;;;;4.65;1.38;;;8.50;99.90;;;;;;5056933;28;20032;-73
2022/04/12 02:15:20;;;;;;;4.30;1.27;;;8.40;99.90;;;;;;5038171;28;20075;-74
2022/04/12 02:17:46;;;;;;;4.30;1.58;;;8.40;99.90;;;;;;5056445;28;20032;-73
2022/04/12 02:20:11;;;;;;;7.20;2.00;;;8.40;99.90;;;;;;5056633;28;20425;-73
2022/04/12 02:22:37;;;;;;;6.53;1.77;;;8.40;99.90;;;;;;5056539;28;20017;-73
2022/04/12 02:25:04;;;;;;;3.88;1.50;;;8.40;99.90;;;;;;5038567;28;20501;-73
2022/04/12 02:27:30;;;;;;;7.57;2.15;;;8.30;99.90;;;;;;5056384;28;20107;-73
2022/04/12 02:29:56;;;;;;;4.38;1.88;;;8.30;99.90;;;;;;5056321;28;20549;-74
2022/04/12 02:32:21;;;;;;;9.57;2.33;;;8.30;99.90;;;;;;5056355;28;20013;-73
2022/04/12 02:34:47;;;;;;;4.90;1.50;;;8.30;99.90;;;;;;5056529;28;20090;-74
2022/04/12 02:37:12;;;;;;;3.47;1.30;;;8.20;99.90;;;;;;5056109;28;20029;-74
2022/04/12 02:39:38;;;;;;;5.30;1.80;;;8.20;99.90;;;;;;5056171;28;20017;-74
2022/04/12 02:42:04;;;;;;;5.15;1.77;;;8.20;99.90;;;;;;5056570;28;20067;-74
2022/04/12 02:44:29;;;;;;;3.92;1.02;;;8.10;99.90;;;;;;5056104;28;20390;-74
2022/04/12 02:46:55;;;;;;;3.15;1.63;;;8.10;99.90;;;;;;5056103;28;20029;-74
2022/04/12 02:49:21;;;;;;;2.58;1.17;;;8.10;99.90;;;;;;5055458;28;20409;-74
2022/04/12 02:51:46;;;;;;;3.80;1.48;;;8.10;99.90;;;;;;5038106;28;20017;-74
2022/04/12 02:54:13;;;;;;;6.78;1.98;;;8.00;99.90;;;;;;5038410;28;20074;-74
2022/04/12 02:56:38;;;;;;;8.15;1.50;;;8.00;99.90;;;;;;5037861;28;20033;-74
2022/04/12 02:59:04;;;;;;;4.80;1.42;;;8.10;99.90;;;;;;5056061;28;20017;-76
2022/04/12 03:01:30;;;;;;;3.40;1.10;;;8.10;99.90;;;;;;5054619;28;20079;-73
2022/04/12 03:03:56;;;;;;;6.70;1.70;;;8.10;99.90;;;;;;5038023;28;20509;-73
2022/04/12 03:06:21;;;;;;;5.72;1.75;;;8.10;99.90;;;;;;5038127;28;20025;-73
2022/04/12 03:08:47;;;;;;;5.13;1.63;;;8.00;99.90;;;;;;5055537;28;20064;-73
2022/04/12 03:11:12;;;;;;;3.65;0.95;;;8.10;99.90;;;;;;5056049;28;20025;-73
2022/04/12 03:13:38;;;;;;;6.18;1.33;;;8.70;99.90;;;;;;5037779;28;20060;-73
2022/04/12 03:16:04;;;;;;;5.65;1.15;;;8.00;99.90;;;;;;5056105;28;20029;-73
2022/04/12 03:18:29;;;;;;;5.78;1.75;;;8.00;99.90;;;;;;5055363;28;20057;-73
2022/04/12 03:20:55;;;;;;;4.53;1.58;;;8.00;99.90;;;;;;5037578;28;20078;-74
2022/04/12 03:23:21;;;;;;;5.13;1.75;;;8.00;99.90;;;;;;5037717;28;20096;-74
2022/04/12 03:25:46;;;;;;;6.05;1.30;;;8.00;99.90;;;;;;5055035;28;20051;-73
2022/04/12 03:28:13;;;;;;;6.25;1.55;;;8.00;99.90;;;;;;5055109;28;20021;-76
2022/04/12 03:30:40;;;;;;;5.03;1.42;;;8.00;99.90;;;;;;5055481;28;20359;-76
2022/04/12 03:33:05;;;;;;;4.75;1.33;;;8.00;99.90;;;;;;5055224;28;20053;-76
2022/04/12 03:35:31;;;;;;;5.88;1.48;;;8.00;99.90;;;;;;5055660;28;20399;-75
2022/04/12 03:38:00;;;;;;;5.93;2.15;;;8.00;99.90;;;;;;5036604;28;20390;-73
2022/04/12 03:40:28;;;;;;;2.60;1.20;;;8.10;99.90;;;;;;5037320;28;20474;-75
2022/04/12 03:42:54;;;;;;;2.70;0.90;;;8.00;99.90;;;;;;5037144;28;20052;-75
2022/04/12 03:45:19;;;;;;;3.90;1.83;;;8.00;99.90;;;;;;5037196;28;20025;-75
2022/04/12 03:47:45;;;;;;;4.78;1.83;;;8.00;99.90;;;;;;5054857;28;20025;-76
2022/04/12 03:50:10;;;;;;;3.90;1.67;;;7.90;99.90;;;;;;5036919;28;20144;-76
2022/04/12 03:52:36;;;;;;;4.45;1.73;;;7.90;99.90;;;;;;5036867;28;20355;-75
2022/04/12 03:55:04;;;;;;;9.38;1.52;;;7.90;99.90;;;;;;5055001;28;20013;-76
2022/04/12 03:57:30;;;;;;;3.17;1.48;;;7.80;99.90;;;;;;5054614;28;20033;-76
2022/04/12 03:59:56;;;;;;;2.63;1.17;;;7.80;99.90;;;;;;5054578;28;20383;-76
2022/04/12 04:02:22;;;;;;;5.10;1.55;;;7.80;99.90;;;;;;5054461;28;20024;-76
2022/04/12 04:04:47;;;;;;;4.25;1.85;;;7.80;99.90;;;;;;5054239;28;20067;-74
2022/04/12 04:07:13;;;;;;;5.72;1.65;;;7.80;99.90;;;;;;5054216;28;20413;-75
2022/04/12 04:09:38;;;;;;;5.93;2.40;;;7.80;99.90;;;;;;5054414;28;20031;-72
2022/04/12 04:12:05;;;;;;;3.85;1.52;;;7.90;99.90;;;;;;5054366;28;20021;-74
2022/04/12 04:14:32;;;;;;;5.05;1.80;;;7.90;99.90;;;;;;5036490;28;20502;-74
2022/04/12 04:17:00;;;;;;;3.33;1.42;;;7.90;99.90;;;;;;5036794;28;20017;-76
2022/04/12 04:19:26;;;;;;;4.23;1.23;;;7.90;99.90;;;;;;5054326;28;20559;-76
2022/04/12 04:21:51;;;;;;;4.28;1.17;;;7.90;99.90;;;;;;5054220;28;20061;-73
2022/04/12 04:24:17;;;;;;;4.95;1.90;;;8.00;99.90;;;;;;5054550;28;20501;-73
2022/04/12 04:26:44;;;;;;;4.68;1.48;;;8.00;99.90;;;;;;5054877;28;20025;-73
2022/04/12 04:29:09;;;;;;;5.53;1.98;;;8.00;99.90;;;;;;5054143;28;20071;-73
2022/04/12 04:31:35;;;;;;;4.60;1.52;;;8.10;99.90;;;;;;5054272;28;20028;-73
2022/04/12 04:34:01;;;;;;;6.68;2.15;;;8.10;99.90;;;;;;5053486;28;20033;-73
2022/04/12 04:36:26;;;;;;;4.03;1.30;;;8.10;99.90;;;;;;5054185;28;20111;-73
2022/04/12 04:38:52;;;;;;;3.88;1.45;;;8.10;99.90;;;;;;5054171;28;20025;-73
2022/04/12 04:41:17;;;;;;;4.18;1.60;;;8.10;99.90;;;;;;5054723;28;20024;-73
2022/04/12 04:43:45;;;;;;;5.55;1.85;;;8.10;99.90;;;;;;5053793;28;20488;-73
2022/04/12 04:46:11;;;;;;;4.55;1.27;;;8.10;99.90;;;;;;5054398;28;20547;-73
2022/04/12 04:48:38;;;;;;;7.00;2.10;;;8.20;99.90;;;;;;5054184;28;20028;-73
2022/04/12 04:51:04;;;;;;;6.03;1.40;;;8.20;99.90;;;;;;5035821;28;20029;-73
2022/04/12 04:53:29;;;;;;;6.65;1.88;;;8.20;99.90;;;;;;5053675;28;20398;-73
2022/04/12 04:55:55;;;;;;;4.45;1.52;;;8.10;99.90;;;;;;5053981;28;20021;-73
2022/04/12 04:58:20;;;;;;;6.60;2.35;;;8.10;99.90;;;;;;5035908;28;20115;-73
2022/04/12 05:00:46;;;;;;;7.22;2.00;;;8.10;99.90;;;;;;5036156;28;20025;-73
2022/04/12 05:03:12;;;;;;;4.43;1.15;;;8.10;99.90;;;;;;5053504;28;20029;-73
2022/04/12 05:05:37;;;;;;;6.55;1.48;;;8.60;99.90;;;;;;5053463;28;20028;-72
2022/04/12 05:08:03;;;;;;;4.10;1.65;;;8.10;99.90;;;;;;5053723;28;20029;-73
2022/04/12 05:10:30;;;;;;;4.35;1.70;;;8.00;99.90;;;;;;5035833;28;20116;-73
2022/04/12 05:12:57;;;;;;;5.53;1.90;;;8.00;99.90;;;;;;5054141;28;20490;-73
2022/04/12 05:15:23;;;;;;;5.18;1.58;;;8.00;99.90;;;;;;5053470;28;20029;-72
2022/04/12 05:17:50;;;;;;;9.77;2.20;;;8.00;99.90;;;;;;5053651;28;20501;-72
2022/04/12 05:20:16;;;;;;;3.17;1.42;;;8.00;99.90;;;;;;5053635;28;20033;-72
2022/04/12 05:22:42;;;;;;;6.65;1.80;;;8.00;99.90;;;;;;5054219;28;20055;-72
2022/04/12 05:25:07;;;;;;;6.28;1.95;;;7.90;99.90;;;;;;5037808;28;20549;-72
2022/04/12 05:27:34;;;;;;;4.30;1.58;;;7.90;99.90;;;;;;5057184;28;20107;-72
2022/04/12 05:30:00;;;;;;;5.82;1.85;;;7.80;99.90;;;;;;5057304;28;20100;-73
2022/04/12 05:32:26;;;;;;;5.43;1.60;;;7.80;99.90;;;;;;5057890;28;20023;-73
2022/04/12 05:34:52;;;;;;;3.83;1.10;;;7.80;99.90;;;;;;5057514;28;20031;-73
2022/04/12 05:37:18;;;;;;;5.32;2.28;;;7.80;99.90;;;;;;5040138;28;20032;-73
2022/04/12 05:39:43;;;;;;;6.05;1.30;;;7.80;99.90;;;;;;5057313;28;20067;-73
2022/04/12 05:42:09;;;;;;;6.95;1.98;;;7.80;99.90;;;;;;5039854;28;20433;-73
2022/04/12 05:44:35;;;;;;;3.45;1.48;;;7.80;99.90;;;;;;5057920;28;20536;-73
2022/04/12 05:47:04;;;;;;;5.18;1.95;;;7.80;99.90;;;;;;5039521;28;20017;-73
2022/04/12 05:49:30;;;;;;;4.40;1.83;;;7.80;99.90;;;;;;5039700;28;20446;-72
2022/04/12 05:51:56;;;;;;;4.40;2.03;;;7.90;99.90;;;;;;5057454;28;20021;-72
2022/04/12 05:54:23;;;;;;;5.80;1.60;;;7.90;99.90;;;;;;5057624;28;20482;-73
2022/04/12 05:56:48;;;;;;;6.45;1.73;;;8.10;99.90;;;;;;5039383;28;20482;-73
2022/04/12 05:59:14;;;;;;;6.80;2.08;;;8.10;99.90;;;;;;5057213;28;20029;-73
2022/04/12 06:01:40;;;;;;;3.33;1.25;;;8.20;99.90;;;;;;5057579;28;20219;-74
2022/04/12 06:04:06;;;;;;;3.83;1.42;;;8.30;99.90;;;;;;5038805;28;20025;-74
2022/04/12 06:06:32;;;;;;;5.75;1.48;;;8.40;99.90;;;;;;5057452;28;20106;-73
2022/04/12 06:08:59;;;;;;;6.22;1.40;;;8.50;99.90;;;;;;5056818;28;20033;-73
2022/04/12 06:11:24;;;;;;;7.75;2.03;;;8.60;99.90;;;;;;5056430;28;20587;-73
2022/04/12 06:13:50;;;;;;;7.35;1.98;;;8.80;99.90;;;;;;5056815;28;20021;-73
2022/04/12 06:16:16;;;;;;;7.28;1.70;;;8.90;99.90;;;;;;5057241;28;20021;-74
2022/04/12 06:18:41;;;;;;;5.05;1.63;;;9.00;99.90;;;;;;5039370;28;20109;-73
2022/04/12 06:21:07;;;;;;;4.05;2.13;;;9.10;99.90;;;;;;5056673;28;20067;-73
2022/04/12 06:23:33;;;;;;;3.85;1.52;;;9.20;99.90;;;;;;5056920;28;20049;-73
2022/04/12 06:25:59;;;;;;;2.70;1.60;;;9.40;99.90;;;;;;5056491;28;20025;-73
2022/04/12 06:28:25;;;;;;;5.45;1.42;;;9.50;99.90;;;;;;5038426;28;20025;-73
2022/04/12 06:30:51;;;;;;;5.13;1.50;;;9.70;99.90;;;;;;5056453;28;20032;-73
2022/04/12 06:33:17;;;;;;;5.88;1.15;;;9.80;99.90;;;;;;5056551;28;20029;-73
2022/04/12 06:35:42;;;;;;;5.55;1.90;;;9.90;99.90;;;;;;5055802;28;20029;-73
2022/04/12 06:38:09;;;;;;;6.82;1.73;;;10.10;99.90;;;;;;5056226;28;20048;-73
2022/04/12 06:40:35;;;;;;;5.78;1.77;;;10.20;99.90;;;;;;5055962;28;20171;-73
2022/04/12 06:43:01;;;;;;;6.10;1.60;;;10.30;99.50;;;;;;5056052;28;20025;-73
2022/04/12 06:45:27;;;;;;;5.20;1.20;;;10.50;99.30;;;;;;5055761;28;20029;-73
2022/04/12 06:47:59;;;;;;;6.75;2.08;;;10.60;98.90;;;;;;5055418;28;20021;-73
2022/04/12 06:50:26;;;;;;;5.10;1.40;;;10.70;98.60;;;;;;5055702;28;20021;-73
2022/04/12 06:52:53;;;;;;;7.57;2.22;;;10.80;98.10;;;;;;5055496;28;20017;-73
2022/04/12 06:55:19;;;;;;;5.47;1.50;;;11.00;97.40;;;;;;5055571;28;20017;-73
2022/04/12 06:57:45;;;;;;;5.25;1.60;;;11.10;97.00;;;;;;5055621;28;20031;-73
2022/04/12 07:00:11;;;;;;;4.50;1.23;;;11.20;96.20;;;;;;5055854;28;20446;-73
2022/04/12 07:02:37;;;;;;;3.75;1.10;;;11.40;94.90;;;;;;5055764;28;20028;-73
2022/04/12 07:05:04;;;;;;;4.22;1.52;;;11.50;95.50;;;;;;5055219;28;20382;-73
2022/04/12 07:07:30;;;;;;;3.45;0.90;;;11.60;94.70;;;;;;5055102;28;20032;-73
2022/04/12 07:09:56;;;;;;;4.95;1.40;;;11.80;94.10;;;;;;5055123;28;20033;-73
2022/04/12 07:12:23;;;;;;;3.45;1.27;;;11.90;93.40;;;;;;5054909;28;20536;-74
2022/04/12 07:14:49;;;;;;;5.28;0.98;;;12.10;92.60;;;;;;5055214;28;20028;-74
2022/04/12 07:17:14;;;;;;;8.00;1.58;;;12.20;91.50;;;;;;5037016;28;20029;-73
2022/04/12 07:19:40;;;;;;;7.38;1.15;;;12.30;92.10;;;;;;5037059;28;20028;-73
2022/04/12 07:22:05;;;;;;;5.00;1.45;;;12.40;91.10;;;;;;5064171;22;20567;-78
2022/04/12 07:24:31;;;;;;;3.50;0.80;;;12.50;90.90;;;;;;5038739;28;20025;-78
2022/04/12 07:26:57;;;;;;;3.42;0.82;;;12.70;89.30;;;;;;5056168;28;20025;-78
2022/04/12 07:29:22;;;;;;;3.10;1.13;;;12.80;87.70;;;;;;5056126;28;20099;-78
2022/04/12 07:31:48;;;;;;;4.70;0.98;;;12.90;86.90;;;;;;5056108;28;20036;-78
2022/04/12 07:34:14;;;;;;;4.47;0.80;;;13.10;84.20;;;;;;5038004;28;20083;-78
2022/04/12 07:36:43;;;;;;;3.15;0.80;;;13.10;82.10;;;;;;5056860;28;20071;-78
2022/04/12 07:39:09;;;;;;;3.55;1.08;;;13.20;82.20;;;;;;5038040;28;20017;-78
2022/04/12 07:41:35;;;;;;;4.97;1.52;;;13.30;82.70;;;;;;5055940;28;20100;-78
2022/04/12 07:44:00;;;;;;;4.38;1.08;;;13.40;83.20;;;;;;5038045;28;20025;-79
2022/04/12 07:46:26;;;;;;;4.78;1.00;;;13.80;82.80;;;;;;5055608;28;20029;-79
2022/04/12 07:48:52;;;;;;;3.83;0.90;;;13.70;80.70;;;;;;5037753;28;20052;-79
2022/04/12 07:51:17;;;;;;;4.20;0.65;;;14.50;79.20;;;;;;5056654;28;20025;-78
2022/04/12 07:53:43;;;;;;;6.30;1.13;;;13.90;78.40;;;;;;5037885;28;20174;-79
2022/04/12 07:56:08;;;;;;;2.85;0.80;;;14.00;77.60;;;;;;5055645;28;20032;-78
2022/04/12 07:58:34;;;;;;;6.10;1.27;;;14.20;77.00;;;;;;5037589;28;20017;-79
2022/04/12 08:01:00;;;;;;;3.65;1.05;;;15.10;77.50;;;;;;5038308;28;20063;-78
2022/04/12 08:03:25;;;;;;;3.08;0.98;;;14.30;76.80;;;;;;5038039;28;20048;-78
2022/04/12 08:05:51;;;;;;;7.07;0.80;;;14.60;76.50;;;;;;5055999;28;20454;-79
2022/04/12 08:08:18;;;;;;;2.70;0.82;;;14.40;77.00;;;;;;5055567;28;20036;-78
2022/04/12 08:10:44;;;;;;;3.17;1.23;;;14.50;76.90;;;;;;5056215;28;20380;-79
2022/04/12 08:13:10;;;;;;;1.67;0.52;;;14.60;75.90;;;;;;5056297;28;20071;-78
2022/04/12 08:15:37;;;;;;;1.92;0.65;;;14.60;75.40;;;;;;5038047;28;20479;-78
2022/04/12 08:18:06;;;;;;;3.63;0.85;;;14.70;75.30;;;;;;5038391;28;20028;-78
2022/04/12 08:20:32;;;;;;;3.90;0.57;;;14.70;74.80;;;;;;5055715;28;20029;-79
2022/04/12 08:22:58;;;;;;;5.57;1.65;;;14.90;73.80;;;;;;5055667;28;20478;-78
2022/04/12 08:25:24;;;;;;;2.60;0.80;;;14.90;73.40;;;;;;5055811;28;20021;-79
2022/04/12 08:27:50;;;;;;;3.45;0.70;;;14.90;74.10;;;;;;5055573;28;20028;-79
2022/04/12 08:30:17;;;;;;;3.10;0.90;;;15.00;73.20;;;;;;5055850;28;20068;-79
2022/04/12 08:32:43;;;;;;;2.65;1.17;;;15.10;74.20;;;;;;5037488;28;20024;-78
2022/04/12 08:35:09;;;;;;;3.70;1.15;;;15.20;73.20;;;;;;5056022;28;20386;-78
2022/04/12 08:37:36;;;;;;;1.58;0.60;;;15.20;72.10;;;;;;5037753;28;20025;-78
2022/04/12 08:40:02;;;;;;;3.95;1.02;;;15.60;73.30;;;;;;5037024;28;20033;-79
2022/04/12 08:42:28;;;;;;;3.60;1.35;;;15.30;72.50;;;;;;5055667;28;20524;-78
2022/04/12 08:44:56;;;;;;;3.70;1.73;;;15.30;71.70;;;;;;5055358;28;20017;-78
2022/04/12 08:47:23;;;;;;;4.68;1.10;;;15.30;73.00;;;;;;5055580;28;20025;-78
2022/04/12 08:49:48;;;;;;;3.28;1.40;;;16.20;75.00;;;;;;5054402;28;20033;-74
2022/04/12 08:52:14;;;;;;;3.33;1.38;;;15.50;73.80;;;;;;5053595;28;20025;-79
2022/04/12 08:54:44;;;;;;;3.17;1.05;;;15.60;74.00;;;;;;5055424;28;20100;-79
2022/04/12 08:57:11;;;;;;;2.83;1.23;;;15.60;73.40;;;;;;5055911;28;20028;-78
2022/04/12 08:59:38;;;;;;;2.15;1.33;;;15.80;74.20;;;;;;5055796;28;20025;-78
2022/04/12 09:02:06;;;;;;;4.90;1.08;;;15.90;73.10;;;;;;5054695;28;20021;-77
2022/04/12 09:04:33;;;;;;;4.03;1.05;;;15.90;74.40;;;;;;5035691;28;20025;-77
2022/04/12 09:06:59;;;;;;;2.08;0.88;;;16.00;73.30;;;;;;5053775;28;20032;-77
2022/04/12 09:09:27;;;;;;;2.85;1.20;;;16.00;72.50;;;;;;5053347;28;20036;-77
2022/04/12 09:12:02;;;;;;;6.93;1.60;;;16.10;72.00;;;;;;5035584;28;20017;-77
2022/04/12 09:14:52;;;;;;;4.18;1.35;;;16.20;72.20;;;;;;5035366;28;20025;-77
2022/04/12 09:17:35;;;;;;;2.45;0.80;;;16.20;72.10;;;;;;5053787;28;20108;-77
2022/04/12 09:20:04;;;;;;;3.50;1.13;;;16.30;72.00;;;;;;5053539;28;20096;-77
2022/04/12 09:22:31;;;;;;;2.67;0.95;;;16.30;74.20;;;;;;5053328;28;20029;-77
2022/04/12 09:24:59;;;;;;;3.80;1.20;;;16.40;74.00;;;;;;5035593;28;20023;-77
2022/04/12 09:27:27;;;;;;;1.85;0.80;;;16.50;73.50;;;;;;5035548;28;20020;-77
2022/04/12 09:29:55;;;;;;;4.97;1.30;;;16.60;73.10;;;;;;5053299;28;20036;-77
2022/04/12 09:32:23;;;;;;;5.07;1.13;;;16.80;73.40;;;;;;5035200;28;20393;-77
2022/04/12 09:34:49;;;;;;;3.65;1.23;;;16.70;72.00;;;;;;5053208;28;20079;-77
2022/04/12 09:37:27;;;;;;;3.13;1.67;;;16.80;74.00;;;;;;5053194;28;20025;-77
2022/04/12 09:39:59;;;;;;;4.22;1.10;;;16.90;72.60;;;;;;5053632;28;20432;-77
2022/04/12 09:42:37;;;;;;;5.20;1.30;;;17.00;72.60;;;;;;5053261;28;20465;-77
2022/04/12 09:45:08;;;;;;;3.28;1.38;;;17.20;73.60;;;;;;5053319;28;20029;-77
2022/04/12 09:47:34;;;;;;;4.88;1.00;;;17.30;70.70;;;;;;5053173;28;20025;-77
2022/04/12 09:50:01;;;;;;;4.28;1.67;;;17.40;70.10;;;;;;5052920;28;20497;-77
2022/04/12 09:52:29;;;;;;;6.45;1.80;;;17.40;71.30;;;;;;5052878;28;20063;-77
2022/04/12 09:54:56;;;;;;;3.90;1.92;;;17.40;70.80;;;;;;5035007;28;20076;-77
2022/04/12 09:57:25;;;;;;;3.83;1.02;;;17.50;70.70;;;;;;5052783;28;20547;-77
2022/04/12 09:59:55;;;;;;;;;;;17.60;70.90;;;;;;5035720;28;20021;-77
2022/04/12 10:02:26;;;;;;;4.25;1.42;;;17.70;70.60;;;;;;5053502;28;19999;-77
2022/04/12 10:04:53;;;;;;;3.85;1.15;;;17.80;70.50;;;;;;5052814;28;20154;-77
2022/04/12 10:07:21;;;;;;;7.07;1.60;;;17.80;69.40;;;;;;5053296;28;20371;-77
2022/04/12 10:09:51;;;;;;;3.10;1.30;;;17.90;69.70;;;;;;5052929;28;20106;-77
2022/04/12 10:12:18;;;;;;;5.25;1.10;;;18.00;69.80;;;;;;5038651;28;20513;-77
2022/04/12 10:14:45;;;;;;;5.00;1.52;;;18.20;70.20;;;;;;5056543;28;20032;-77
2022/04/12 10:17:12;;;;;;;2.88;1.27;;;18.50;67.40;;;;;;5056195;28;20025;-77
2022/04/12 10:19:40;;;;;;;2.65;1.13;;;18.50;67.30;;;;;;5056337;28;20021;-77
2022/04/12 10:22:06;;;;;;;2.97;0.95;;;18.60;65.60;;;;;;5038151;28;20099;-77
2022/04/12 10:24:33;;;;;;;3.42;1.00;;;18.80;65.60;;;;;;5038584;28;20045;-76
2022/04/12 10:26:58;;;;;;;3.33;0.82;;;19.10;64.70;;;;;;5038369;28;20052;-77
2022/04/12 10:29:24;;;;;;;8.32;0.82;;;18.90;66.30;;;;;;5038461;28;20048;-77
2022/04/12 10:32:01;;;;;;;3.30;1.10;;;19.00;66.20;;;;;;5056147;28;20021;-77
2022/04/12 10:34:27;;;;;;;5.72;1.30;;;19.20;64.80;;;;;;5056393;28;20059;-77
2022/04/12 10:36:56;;;;;;;2.65;0.95;;;19.20;62.70;;;;;;5038062;28;20447;-77
2022/04/12 10:39:44;;;;;;;1.17;0.47;;;19.20;62.60;;;;;;5055986;28;20028;-77
2022/04/12 10:42:14;;;;;;;2.73;0.97;;;19.30;64.60;;;;;;5038026;28;20466;-77
2022/04/12 10:44:43;;;;;;;3.38;1.17;;;19.50;63.10;;;;;;5038101;28;20044;-77
2022/04/12 10:47:44;;;;;;;3.70;1.17;;;19.60;62.00;;;;;;5038013;28;20021;-77
2022/04/12 10:50:13;;;;;;;5.28;1.70;;;19.80;62.10;;;;;;4996841;28;20486;-77
2022/04/12 10:52:49;;;;;;;5.15;1.15;;;19.80;61.00;;;;;;5056072;28;20096;-77
2022/04/12 10:55:17;;;;;;;2.30;1.08;;;20.00;62.20;;;;;;5038733;28;20048;-77
2022/04/12 10:57:43;;;;;;;3.30;1.00;;;20.00;60.90;;;;;;5055778;28;20419;-77
2022/04/12 11:00:09;;;;;;;4.32;0.63;;;19.90;59.70;;;;;;5055532;28;20017;-78
2022/04/12 11:02:54;;;;;;;5.30;1.48;;;19.80;60.20;;;;;;5037666;28;20033;-77
2022/04/12 11:05:42;;;;;;;3.15;0.90;;;19.60;60.90;;;;;;5055535;28;20488;-77
2022/04/12 11:08:36;;;;;;;1.90;0.70;;;19.50;61.50;;;;;;5055562;28;20032;-77
2022/04/12 11:11:03;;;;;;;6.05;0.98;;;19.40;61.90;;;;;;5037292;28;20454;-77
2022/04/12 11:13:30;;;;;;;2.88;1.15;;;19.50;61.80;;;;;;5055164;28;20021;-77
2022/04/12 11:15:59;;;;;;;2.63;0.77;;;19.60;62.00;;;;;;5055578;28;20037;-77
2022/04/12 11:18:47;;;;;;;4.13;0.90;;;19.70;62.00;;;;;;5055389;28;20482;-77
2022/04/12 11:21:14;;;;;;;2.30;0.85;;;19.80;61.40;;;;;;5054968;28;20032;-77
2022/04/12 11:24:04;;;;;;;24.13;0.95;;;19.90;61.10;;;;;;5054328;28;20013;-77
2022/04/12 11:26:50;;;;;;;1.45;0.73;;;20.00;60.90;;;;;;5056277;28;20021;-77
2022/04/12 11:29:20;;;;;;;2.28;1.00;;;20.10;59.80;;;;;;5055061;28;20086;-77
2022/04/12 11:31:53;;;;;;;1.92;0.75;;;20.30;59.30;;;;;;5036985;28;20032;-77
2022/04/12 11:34:20;;;;;;;2.95;0.80;;;20.50;58.40;;;;;;5055097;28;20096;-77
2022/04/12 11:36:51;;;;;;;4.13;1.13;;;20.70;58.20;;;;;;5055150;28;20024;-77
2022/04/12 11:39:24;;;;;;;4.18;1.42;;;20.80;57.90;;;;;;5054828;28;20021;-77
2022/04/12 11:41:55;;;;;;;4.43;1.15;;;20.80;57.70;;;;;;5054940;28;20056;-77
2022/04/12 11:44:23;;;;;;;2.67;0.70;;;20.70;58.50;;;;;;5054819;28;20032;-77
2022/04/12 11:47:01;;;;;;;4.72;1.10;;;20.70;59.10;;;;;;5055188;28;20025;-77
2022/04/12 11:49:31;;;;;;;3.30;0.67;;;20.70;59.30;;;;;;5055060;28;20017;-77
2022/04/12 11:52:02;;;;;;;2.65;0.98;;;20.70;59.00;;;;;;5054637;28;20029;-77
2022/04/12 11:54:30;;;;;;;3.60;0.50;;;20.80;58.70;;;;;;5054354;28;20115;-77
2022/04/12 11:57:33;;;;;;;2.15;0.52;;;20.90;58.70;;;;;;5054939;28;20386;-77
2022/04/12 12:00:00;;;;;;;2.53;0.68;;;21.00;57.60;;;;;;4973768;28;20046;-77
2022/04/12 12:02:28;;;;;;;3.17;0.55;;;21.10;58.00;;;;;;5038076;28;20040;-77
2022/04/12 12:05:05;;;;;;;3.72;0.73;;;21.10;57.20;;;;;;5036517;28;20494;-77
2022/04/12 12:07:31;;;;;;;4.00;0.77;;;21.20;56.80;;;;;;5054720;28;20025;-77
2022/04/12 12:10:02;;;;;;;6.60;0.65;;;21.30;57.10;;;;;;5054278;28;20029;-77
2022/04/12 12:12:47;;;;;;;2.55;0.90;;;21.40;56.90;;;;;;5054543;28;20117;-77
2022/04/12 12:15:25;;;;;;;2.70;0.85;;;21.80;57.10;;;;;;5054265;28;20489;-77
2022/04/12 12:17:52;;;;;;;6.28;0.88;;;22.10;55.40;;;;;;5036222;28;20032;-77
2022/04/12 12:20:21;;;;;;;2.40;0.63;;;22.40;54.60;;;;;;5036057;28;20028;-77
2022/04/12 12:22:51;;;;;;;2.25;0.95;;;22.50;55.20;;;;;;5054091;28;20115;-77
2022/04/12 12:25:19;;;;;;;4.90;1.45;;;22.60;53.20;;;;;;5054044;28;20025;-78
2022/04/12 12:27:53;;;;;;;5.47;0.95;;;22.80;54.00;;;;;;5035813;28;20040;-77
2022/04/12 12:30:25;;;;;;;10.02;1.48;;;22.80;52.60;;;;;;5053817;28;20029;-76
2022/04/12 12:32:52;;;;;;;1.35;0.57;;;22.90;53.30;;;;;;5035912;28;20028;-77
2022/04/12 12:35:18;;;;;;;2.95;1.15;;;22.70;52.80;;;;;;5053777;28;20082;-77
2022/04/12 12:37:45;;;;;;;3.53;1.00;;;22.80;54.30;;;;;;5035834;28;20025;-77
2022/04/12 12:40:19;;;;;;;3.20;0.90;;;23.10;52.70;;;;;;5053878;28;20482;-77
2022/04/12 12:42:45;;;;;;;12.50;1.23;;;23.20;52.90;;;;;;5035966;28;20021;-77
2022/04/12 12:45:16;;;;;;;6.13;1.42;;;23.30;52.10;;;;;;5053681;28;20092;-77
2022/04/12 12:47:43;;;;;;;4.15;0.98;;;23.40;52.10;;;;;;5053828;28;20020;-77
2022/04/12 12:50:14;;;;;;;5.72;0.85;;;23.50;52.20;;;;;;5053738;28;20021;-77
2022/04/12 12:52:41;;;;;;;3.45;1.20;;;23.70;52.80;;;;;;5053824;28;20528;-77
2022/04/12 12:55:22;;;;;;;5.70;1.58;;;23.70;52.20;;;;;;5035674;28;20025;-77
2022/04/12 12:57:49;;;;;;;5.95;1.27;;;23.80;52.10;;;;;;5035618;28;20025;-77